Time;durP1;ratioP1;P1;durP2;ratioP2;P2;SDS_P1;SDS_P2;PMS_P1;PMS_P2;Temp;Humidity;BMP_temperature;BMP_pressure;BME280_temperature;BME280_humidity;BME280_pressure;Samples;Min_cycle;Max_cycle;Signal;HPM_P1;HPM_P2
2024/01/22 00:01:32;;;;;;;5.97;2.70;;;;;;;;;;4904713;29;20036;-81
2024/01/22 00:04:24;;;;;;;6.47;3.00;;;;;;;;;;4920898;29;20080;-81
2024/01/22 00:06:54;;;;;;;6.80;2.65;;;;;;;;;;4892177;29;20055;-81
2024/01/22 00:09:43;;;;;;;9.00;3.10;;;;;;;;;;4925044;29;20036;-82
2024/01/22 00:12:14;;;;;;;6.65;2.95;;;;;;;;;;4907292;29;20039;-81
2024/01/22 00:14:42;;;;;;;8.38;3.67;;;;;;;;;;4906584;29;20044;-81
2024/01/22 00:17:16;;;;;;;8.25;2.88;;;;;;;;;;4913126;29;20044;-81
2024/01/22 00:19:46;;;;;;;;;;;;;;;;;;4901587;29;20054;-81
2024/01/22 00:22:16;;;;;;;7.88;3.13;;;;;;;;;;4922834;29;19899;-80
2024/01/22 00:24:46;;;;;;;13.13;4.03;;;;;;;;;;4922949;29;20028;-81
2024/01/22 00:27:13;;;;;;;7.93;3.20;;;;;;;;;;4925006;29;20040;-81
2024/01/22 00:29:46;;;;;;;8.15;3.42;;;;;;;;;;4939353;29;20036;-81
2024/01/22 00:32:14;;;;;;;10.75;4.45;;;;;;;;;;4925409;29;20036;-82
2024/01/22 00:35:06;;;;;;;7.35;3.63;;;;;;;;;;4936244;29;20051;-82
2024/01/22 00:37:34;;;;;;;4.90;2.45;;;;;;;;;;4923694;29;20084;-81
2024/01/22 00:40:07;;;;;;;8.90;3.38;;;;;;;;;;4905228;29;20131;-81
2024/01/22 00:42:42;;;;;;;8.27;3.08;;;;;;;;;;4889961;29;20135;-81
2024/01/22 00:45:11;;;;;;;7.43;2.83;;;;;;;;;;4892936;29;20046;-81
2024/01/22 00:48:07;;;;;;;7.55;3.60;;;;;;;;;;4928994;29;20036;-80
2024/01/22 00:50:39;;;;;;;7.65;3.15;;;;;;;;;;4910796;29;20103;-81
2024/01/22 00:53:23;;;;;;;7.82;2.85;;;;;;;;;;4936497;29;20039;-81
2024/01/22 00:56:07;;;;;;;8.65;2.88;;;;;;;;;;4922403;29;20048;-80
2024/01/22 00:58:38;;;;;;;7.47;3.08;;;;;;;;;;4931338;29;20057;-82
2024/01/22 01:01:13;;;;;;;5.68;3.03;;;;;;;;;;4933407;29;20055;-80
2024/01/22 01:03:41;;;;;;;8.07;2.65;;;;;;;;;;4903442;29;20048;-81
2024/01/22 01:06:41;;;;;;;7.70;3.33;;;;;;;;;;4903676;29;20036;-81
2024/01/22 01:09:12;;;;;;;6.25;3.00;;;;;;;;;;4888323;29;20036;-80
2024/01/22 01:11:46;;;;;;;11.10;3.00;;;;;;;;;;4903197;29;20087;-81
2024/01/22 01:14:19;;;;;;;5.82;2.60;;;;;;;;;;4903178;29;20051;-81
2024/01/22 01:16:52;;;;;;;7.05;2.67;;;;;;;;;;4919322;29;20024;-82
2024/01/22 01:19:19;;;;;;;7.75;2.85;;;;;;;;;;4904966;29;20048;-81
2024/01/22 01:24:41;;;;;;;5.70;2.70;;;;;;;;;;4903026;29;20048;-82
2024/01/22 01:27:10;;;;;;;6.55;2.63;;;;;;;;;;4902964;29;20048;-81
2024/01/22 01:29:42;;;;;;;8.18;2.53;;;;;;;;;;4902574;29;20036;-81
2024/01/22 01:32:22;;;;;;;9.80;3.10;;;;;;;;;;4918574;29;20100;-81
2024/01/22 01:35:09;;;;;;;7.90;2.58;;;;;;;;;;4887213;29;20048;-81
2024/01/22 01:37:40;;;;;;;7.57;2.92;;;;;;;;;;4889189;29;20032;-81
2024/01/22 01:40:07;;;;;;;4.45;2.15;;;;;;;;;;4887325;29;20044;-81
2024/01/22 01:42:36;;;;;;;5.35;2.22;;;;;;;;;;4905624;29;20043;-81
2024/01/22 01:45:16;;;;;;;4.55;2.30;;;;;;;;;;4906014;29;20412;-80
2024/01/22 01:47:48;;;;;;;6.15;2.75;;;;;;;;;;4903341;29;20091;-81
2024/01/22 01:50:25;;;;;;;7.75;2.80;;;;;;;;;;4905750;29;20127;-81
2024/01/22 01:52:54;;;;;;;6.97;2.63;;;;;;;;;;4920753;29;20036;-80
2024/01/22 01:55:22;;;;;;;6.38;2.60;;;;;;;;;;4911201;29;20032;-79
2024/01/22 01:57:57;;;;;;;7.00;2.47;;;;;;;;;;4911713;29;20554;-79
2024/01/22 02:00:32;;;;;;;6.22;2.40;;;;;;;;;;4931274;29;20036;-81
2024/01/22 02:03:31;;;;;;;7.47;2.22;;;;;;;;;;4911004;29;20095;-81
2024/01/22 02:06:06;;;;;;;6.95;2.22;;;;;;;;;;4927538;29;20034;-81
2024/01/22 02:08:52;;;;;;;7.70;2.63;;;;;;;;;;4941222;29;20115;-81
2024/01/22 02:11:23;;;;;;;7.80;2.58;;;;;;;;;;4901667;29;20130;-81
2024/01/22 02:14:03;;;;;;;6.30;2.47;;;;;;;;;;4924596;29;20407;-81
2024/01/22 02:16:57;;;;;;;6.22;2.72;;;;;;;;;;4932185;29;20123;-82
2024/01/22 02:19:53;;;;;;;5.45;2.45;;;;;;;;;;4946715;29;20040;-80
2024/01/22 02:22:40;;;;;;;7.07;2.92;;;;;;;;;;4916527;29;20079;-81
2024/01/22 02:27:51;;;;;;;8.32;2.55;;;;;;;;;;4925582;29;20058;-77
2024/01/22 02:30:17;;;;;;;9.50;2.60;;;;;;;;;;4947380;29;20059;-77
2024/01/22 02:32:44;;;;;;;6.40;2.20;;;;;;;;;;4948876;29;20441;-76
2024/01/22 02:35:10;;;;;;;6.25;2.65;;;;;;;;;;4947036;29;20032;-77
2024/01/22 02:37:37;;;;;;;5.05;2.20;;;;;;;;;;4932087;29;20031;-76
2024/01/22 02:40:03;;;;;;;4.45;2.22;;;;;;;;;;4948807;29;20027;-77
2024/01/22 02:42:28;;;;;;;5.80;2.40;;;;;;;;;;4946420;29;20083;-77
2024/01/22 02:44:54;;;;;;;8.13;2.50;;;;;;;;;;4929124;29;20059;-77
2024/01/22 02:47:20;;;;;;;5.65;1.98;;;;;;;;;;4933780;29;20051;-77
2024/01/22 02:49:46;;;;;;;7.03;1.90;;;;;;;;;;4937034;29;20031;-76
2024/01/22 02:52:12;;;;;;;5.60;2.00;;;;;;;;;;4937287;29;20043;-76
2024/01/22 02:54:38;;;;;;;3.67;1.67;;;;;;;;;;4933431;29;20479;-77
2024/01/22 02:57:04;;;;;;;8.20;2.15;;;;;;;;;;4915693;29;20023;-77
2024/01/22 02:59:29;;;;;;;7.53;2.45;;;;;;;;;;4950239;29;20024;-77
2024/01/22 03:01:55;;;;;;;8.65;2.10;;;;;;;;;;4915580;29;20036;-77
2024/01/22 03:04:20;;;;;;;4.45;2.10;;;;;;;;;;4930655;29;20032;-76
2024/01/22 03:06:46;;;;;;;6.80;2.38;;;;;;;;;;4951433;29;20475;-78
2024/01/22 03:09:15;;;;;;;;;;;;;;;;;;4933267;29;20051;-77
2024/01/22 03:11:40;;;;;;;8.85;2.30;;;;;;;;;;4933262;29;19911;-77
2024/01/22 03:14:10;;;;;;;5.72;2.20;;;;;;;;;;4919296;29;20039;-77
2024/01/22 03:16:39;;;;;;;6.18;1.92;;;;;;;;;;4939605;29;20106;-77
2024/01/22 03:19:07;;;;;;;5.00;2.00;;;;;;;;;;4936527;29;20087;-77
2024/01/22 03:21:35;;;;;;;3.95;1.90;;;;;;;;;;4939113;29;20040;-77
2024/01/22 03:24:05;;;;;;;6.13;2.13;;;;;;;;;;4907575;29;20120;-76
2024/01/22 03:26:30;;;;;;;5.03;1.90;;;;;;;;;;4940297;29;20035;-77
2024/01/22 03:28:56;;;;;;;5.53;2.15;;;;;;;;;;4941066;29;20054;-76
2024/01/22 03:31:23;;;;;;;4.32;1.80;;;;;;;;;;4924672;29;20027;-77
2024/01/22 03:33:49;;;;;;;5.80;2.30;;;;;;;;;;4956983;29;20039;-76
2024/01/22 03:36:15;;;;;;;6.60;2.20;;;;;;;;;;4923998;29;20047;-76
2024/01/22 03:38:41;;;;;;;5.18;1.90;;;;;;;;;;4939771;29;20099;-77
2024/01/22 03:41:06;;;;;;;5.40;1.80;;;;;;;;;;4956138;29;20499;-77
2024/01/22 03:43:32;;;;;;;5.68;1.92;;;;;;;;;;4925674;29;20055;-76
2024/01/22 03:45:58;;;;;;;3.97;1.63;;;;;;;;;;4923632;29;20041;-76
2024/01/22 03:48:24;;;;;;;5.43;1.85;;;;;;;;;;4957253;29;20603;-76
2024/01/22 03:50:51;;;;;;;6.00;1.90;;;;;;;;;;4924311;29;20043;-77
2024/01/22 03:53:17;;;;;;;6.15;1.88;;;;;;;;;;4922707;29;20094;-77
2024/01/22 03:55:42;;;;;;;3.83;1.65;;;;;;;;;;4904429;29;20035;-77
2024/01/22 03:58:08;;;;;;;3.40;1.50;;;;;;;;;;4955553;29;20059;-76
2024/01/22 04:00:33;;;;;;;9.75;1.60;;;;;;;;;;4954039;29;20059;-76
2024/01/22 04:02:59;;;;;;;4.47;1.73;;;;;;;;;;4937696;29;20044;-77
2024/01/22 04:05:25;;;;;;;4.50;1.60;;;;;;;;;;4936662;29;20388;-77
2024/01/22 04:07:51;;;;;;;4.03;1.27;;;;;;;;;;4951817;29;20079;-77
2024/01/22 04:10:17;;;;;;;4.78;1.60;;;;;;;;;;4919281;29;20095;-77
2024/01/22 04:12:42;;;;;;;4.25;1.52;;;;;;;;;;4920003;29;20032;-78
2024/01/22 04:15:09;;;;;;;3.28;1.35;;;;;;;;;;4933768;29;20119;-77
2024/01/22 04:17:41;;;;;;;3.17;1.40;;;;;;;;;;4916685;29;20055;-76
2024/01/22 04:20:06;;;;;;;5.18;1.40;;;;;;;;;;4950700;29;20020;-76
2024/01/22 04:22:32;;;;;;;7.20;1.73;;;;;;;;;;4951458;29;20083;-76
2024/01/22 04:24:58;;;;;;;5.60;1.80;;;;;;;;;;4934577;29;20106;-77
2024/01/22 04:27:23;;;;;;;3.78;1.30;;;;;;;;;;4935010;29;20487;-77
2024/01/22 04:29:49;;;;;;;4.10;1.65;;;;;;;;;;4935503;29;20118;-77
2024/01/22 04:32:15;;;;;;;3.83;1.63;;;;;;;;;;4918298;29;20054;-76
2024/01/22 04:34:41;;;;;;;4.30;1.50;;;;;;;;;;4901491;29;20035;-77
2024/01/22 04:37:07;;;;;;;6.28;1.40;;;;;;;;;;4933211;29;20036;-77
2024/01/22 04:39:33;;;;;;;5.13;1.30;;;;;;;;;;4915980;29;20040;-76
2024/01/22 04:41:58;;;;;;;4.55;1.15;;;;;;;;;;4950433;29;20046;-77
2024/01/22 04:44:27;;;;;;;2.35;1.10;;;;;;;;;;4932164;29;20044;-76
2024/01/22 04:46:53;;;;;;;;;;;;;;;;;;4915958;29;20051;-77
2024/01/22 04:49:19;;;;;;;3.95;1.48;;;;;;;;;;4917753;29;19957;-77
2024/01/22 04:51:44;;;;;;;2.42;1.27;;;;;;;;;;4935239;29;20055;-77
2024/01/22 04:54:12;;;;;;;3.63;1.00;;;;;;;;;;4934121;29;20042;-77
2024/01/22 04:56:40;;;;;;;3.30;1.13;;;;;;;;;;4952005;29;20051;-77
2024/01/22 04:59:08;;;;;;;2.92;1.20;;;;;;;;;;4951326;29;20028;-76
2024/01/22 05:01:34;;;;;;;3.67;0.90;;;;;;;;;;4916414;29;20114;-76
2024/01/22 05:04:00;;;;;;;3.38;1.05;;;;;;;;;;4935884;29;20040;-78
2024/01/22 05:06:25;;;;;;;5.30;0.90;;;;;;;;;;4919436;29;20044;-78
2024/01/22 05:08:52;;;;;;;1.75;0.90;;;;;;;;;;4919894;29;20040;-77
2024/01/22 05:11:20;;;;;;;3.13;1.25;;;;;;;;;;4922853;29;20063;-77
2024/01/22 05:13:52;;;;;;;4.57;0.70;;;;;;;;;;4935583;29;20032;-76
2024/01/22 05:16:18;;;;;;;3.03;1.27;;;;;;;;;;4919838;29;20043;-77
2024/01/22 05:18:44;;;;;;;2.60;1.13;;;;;;;;;;4918043;29;20035;-76
2024/01/22 05:21:10;;;;;;;3.92;1.10;;;;;;;;;;4916106;29;20066;-77
2024/01/22 05:23:42;;;;;;;5.20;1.20;;;;;;;;;;4918303;29;20090;-77
2024/01/22 05:26:09;;;;;;;2.75;1.33;;;;;;;;;;4937140;29;20052;-78
2024/01/22 05:28:35;;;;;;;3.30;1.15;;;;;;;;;;4939423;29;20031;-77
2024/01/22 05:31:01;;;;;;;2.17;1.02;;;;;;;;;;4926758;29;20106;-77
2024/01/22 05:33:27;;;;;;;2.83;1.10;;;;;;;;;;4942931;29;20038;-77
2024/01/22 05:35:55;;;;;;;2.83;0.80;;;;;;;;;;4926316;29;20416;-77
2024/01/22 05:38:21;;;;;;;2.90;1.25;;;;;;;;;;4926166;29;20036;-77
2024/01/22 05:40:47;;;;;;;3.38;1.45;;;;;;;;;;4923576;29;20034;-78
2024/01/22 05:43:14;;;;;;;3.22;1.10;;;;;;;;;;4940875;29;20040;-78
2024/01/22 05:45:40;;;;;;;4.63;0.70;;;;;;;;;;4941458;29;20061;-77
2024/01/22 05:48:06;;;;;;;1.88;0.98;;;;;;;;;;4942811;29;20039;-77
2024/01/22 05:50:32;;;;;;;3.85;1.40;;;;;;;;;;4944330;29;20071;-77
2024/01/22 05:52:58;;;;;;;3.60;1.20;;;;;;;;;;4929697;29;20031;-77
2024/01/22 05:55:24;;;;;;;2.22;1.17;;;;;;;;;;4929821;29;20039;-77
2024/01/22 05:57:49;;;;;;;5.65;1.23;;;;;;;;;;4929839;29;20042;-78
2024/01/22 06:00:18;;;;;;;3.33;1.30;;;;;;;;;;4927908;29;20042;-78
2024/01/22 06:02:44;;;;;;;2.55;1.10;;;;;;;;;;4926759;29;20228;-77
2024/01/22 06:05:10;;;;;;;4.03;1.17;;;;;;;;;;4933586;29;20060;-77
2024/01/22 06:07:38;;;;;;;3.95;1.20;;;;;;;;;;4932569;29;20139;-78
2024/01/22 06:10:08;;;;;;;6.38;1.55;;;;;;;;;;4917690;29;20514;-77
2024/01/22 06:12:38;;;;;;;3.45;1.73;;;;;;;;;;4931002;29;20047;-77
2024/01/22 06:15:05;;;;;;;2.83;1.35;;;;;;;;;;4930912;29;20031;-76
2024/01/22 06:17:33;;;;;;;;;;;;;;;;;;4914760;29;20035;-77
2024/01/22 06:20:03;;;;;;;2.85;0.95;;;;;;;;;;4930194;29;19911;-77
2024/01/22 06:22:29;;;;;;;2.17;1.00;;;;;;;;;;4930529;29;20035;-78
2024/01/22 06:24:55;;;;;;;1.73;0.90;;;;;;;;;;4949137;29;20115;-77
2024/01/22 06:27:21;;;;;;;3.35;0.93;;;;;;;;;;4932754;29;20055;-77
2024/01/22 06:29:48;;;;;;;2.53;1.08;;;;;;;;;;4931123;29;20471;-78
2024/01/22 06:32:17;;;;;;;2.03;0.90;;;;;;;;;;4916145;29;20043;-78
2024/01/22 06:34:43;;;;;;;2.78;1.10;;;;;;;;;;4902369;29;20051;-78
2024/01/22 06:37:09;;;;;;;3.78;1.55;;;;;;;;;;4920715;29;20126;-79
2024/01/22 06:39:38;;;;;;;2.33;0.98;;;;;;;;;;4917839;29;20455;-78
2024/01/22 06:42:24;;;;;;;5.75;1.23;;;;;;;;;;4936217;29;20072;-78
2024/01/22 06:46:01;;;;;;;2.72;1.33;;;;;;;;;;4930246;29;20118;-78
2024/01/22 06:49:42;;;;;;;2.83;1.20;;;;;;;;;;4900299;29;20036;-78
2024/01/22 06:53:04;;;;;;;2.85;1.13;;;;;;;;;;4905416;29;20041;-77
2024/01/22 07:00:11;;;;;;;2.28;1.10;;;;;;;;;;4868031;29;20537;-78
2024/01/22 07:03:29;;;;;;;3.20;1.30;;;;;;;;;;4843743;29;20141;-78
2024/01/22 07:06:35;;;;;;;4.32;1.60;;;;;;;;;;4832907;29;20045;-77
2024/01/22 07:09:51;;;;;;;2.63;1.00;;;;;;;;;;4868034;29;20037;-80
2024/01/22 07:13:08;;;;;;;3.60;1.30;;;;;;;;;;4867398;29;20049;-78
2024/01/22 07:16:42;;;;;;;4.43;1.10;;;;;;;;;;4850864;29;20053;-78
2024/01/22 07:20:08;;;;;;;3.05;1.13;;;;;;;;;;4858434;29;20048;-78
2024/01/22 07:23:32;;;;;;;2.70;1.10;;;;;;;;;;4887669;23;20043;-78
2024/01/22 07:27:08;;;;;;;1.83;0.80;;;;;;;;;;4984527;28;20039;-78
2024/01/22 07:30:45;;;;;;;1.95;0.77;;;;;;;;;;4968151;28;20406;-78
2024/01/22 07:34:38;;;;;;;2.17;0.90;;;;;;;;;;4979663;28;20050;-78
2024/01/22 07:38:19;;;;;;;2.50;0.98;;;;;;;;;;4980396;28;20093;-77
2024/01/22 07:41:00;;;;;;;2.05;0.90;;;;;;;;;;4932793;28;20041;-78
2024/01/22 07:43:43;;;;;;;2.88;1.20;;;;;;;;;;4982527;23;20498;-78
2024/01/22 07:46:10;;;;;;;4.50;1.90;;;;;;;;;;4961316;28;20081;-78
2024/01/22 07:48:36;;;;;;;4.63;1.60;;;;;;;;;;4962047;28;20030;-77
2024/01/22 07:51:01;;;;;;;4.95;2.20;;;;;;;;;;4946691;28;20154;-78
2024/01/22 07:53:28;;;;;;;4.32;1.95;;;;;;;;;;4947594;28;20043;-78
2024/01/22 07:55:54;;;;;;;3.38;1.38;;;;;;;;;;4946885;29;20118;-78
2024/01/22 07:58:25;;;;;;;4.55;1.60;;;;;;;;;;4919834;29;20039;-78
2024/01/22 08:00:54;;;;;;;4.55;1.33;;;;;;;;;;4950080;29;20054;-78
2024/01/22 08:03:22;;;;;;;6.28;1.10;;;;;;;;;;4966048;29;20038;-77
2024/01/22 08:05:47;;;;;;;5.55;1.02;;;;;;;;;;4964094;29;20051;-78
2024/01/22 08:08:13;;;;;;;2.45;0.98;;;;;;;;;;4962195;29;20028;-78
2024/01/22 08:10:39;;;;;;;6.72;1.92;;;;;;;;;;4913346;29;20023;-77
2024/01/22 08:13:06;;;;;;;3.45;0.90;;;;;;;;;;4930398;29;20045;-78
2024/01/22 08:15:32;;;;;;;2.55;0.85;;;;;;;;;;4928694;29;20035;-79
2024/01/22 08:17:57;;;;;;;2.03;0.90;;;;;;;;;;4930383;29;20027;-78
2024/01/22 08:20:24;;;;;;;3.60;1.30;;;;;;;;;;4930703;29;20078;-78
2024/01/22 08:22:50;;;;;;;1.88;0.95;;;;;;;;;;4931278;29;20050;-78
2024/01/22 08:25:20;;;;;;;1.88;0.88;;;;;;;;;;4942457;29;20035;-77
2024/01/22 08:27:46;;;;;;;5.63;1.17;;;;;;;;;;4943322;29;20039;-79
2024/01/22 08:30:12;;;;;;;3.33;0.90;;;;;;;;;;4946205;29;20655;-78
2024/01/22 08:32:38;;;;;;;2.33;0.88;;;;;;;;;;4960396;29;20043;-77
2024/01/22 08:35:04;;;;;;;2.90;0.93;;;;;;;;;;4926610;29;20114;-77
2024/01/22 08:37:29;;;;;;;2.10;1.00;;;;;;;;;;4942322;29;20049;-77
2024/01/22 08:39:57;;;;;;;3.78;1.02;;;;;;;;;;4926279;29;20463;-78
2024/01/22 08:42:24;;;;;;;1.85;0.85;;;;;;;;;;4943327;29;20027;-78
2024/01/22 08:44:50;;;;;;;1.98;0.77;;;;;;;;;;4926648;29;20061;-77
2024/01/22 08:47:17;;;;;;;7.40;1.33;;;;;;;;;;4957854;29;20027;-79
2024/01/22 08:49:45;;;;;;;4.40;0.82;;;;;;;;;;4942247;29;20046;-78
2024/01/22 08:52:11;;;;;;;1.65;0.88;;;;;;;;;;4910918;29;20031;-77
2024/01/22 08:54:37;;;;;;;1.48;0.90;;;;;;;;;;4922875;29;20151;-78
2024/01/22 08:57:03;;;;;;;2.08;1.02;;;;;;;;;;4942583;29;20055;-78
2024/01/22 08:59:29;;;;;;;1.67;0.73;;;;;;;;;;4959750;29;20051;-77
2024/01/22 09:01:55;;;;;;;2.47;0.90;;;;;;;;;;4926981;29;20027;-78
2024/01/22 09:04:21;;;;;;;2.38;1.00;;;;;;;;;;4943963;29;20093;-78
2024/01/22 09:07:12;;;;;;;1.63;0.90;;;;;;;;;;4950609;29;20113;-77
2024/01/22 09:09:37;;;;;;;1.50;0.73;;;;;;;;;;4947082;29;20035;-77
2024/01/22 09:12:03;;;;;;;2.28;0.90;;;;;;;;;;4946589;29;20095;-77
2024/01/22 09:14:29;;;;;;;3.35;1.27;;;;;;;;;;4963927;29;20066;-76
2024/01/22 09:16:55;;;;;;;2.47;1.08;;;;;;;;;;4931797;29;20147;-77
2024/01/22 09:19:21;;;;;;;3.92;1.05;;;;;;;;;;4944709;29;20511;-77
2024/01/22 09:21:46;;;;;;;3.70;1.02;;;;;;;;;;4927982;29;20137;-77
2024/01/22 09:24:13;;;;;;;2.22;1.02;;;;;;;;;;4928300;29;20050;-78
2024/01/22 09:26:38;;;;;;;6.35;1.40;;;;;;;;;;4913217;29;20039;-76
2024/01/22 09:29:04;;;;;;;5.10;1.38;;;;;;;;;;4945756;29;20071;-76
2024/01/22 09:31:30;;;;;;;3.72;1.25;;;;;;;;;;4929454;29;20442;-77
2024/01/22 09:33:56;;;;;;;2.50;1.08;;;;;;;;;;4961426;29;20102;-77
2024/01/22 09:36:21;;;;;;;3.83;1.27;;;;;;;;;;4960477;29;20023;-77
2024/01/22 09:38:47;;;;;;;3.08;1.08;;;;;;;;;;4945301;29;20037;-77
2024/01/22 09:41:13;;;;;;;3.63;1.45;;;;;;;;;;4945975;29;20035;-77
2024/01/22 09:43:40;;;;;;;8.27;1.90;;;;;;;;;;4930844;29;20111;-77
2024/01/22 09:46:08;;;;;;;4.82;1.55;;;;;;;;;;4920313;29;20032;-78
2024/01/22 09:48:35;;;;;;;5.22;1.50;;;;;;;;;;4953781;29;20053;-77
2024/01/22 09:51:05;;;;;;;4.70;1.58;;;;;;;;;;4966647;29;20035;-78
2024/01/22 09:53:35;;;;;;;7.60;1.55;;;;;;;;;;4936307;29;20094;-77
2024/01/22 09:56:02;;;;;;;4.40;1.27;;;;;;;;;;4945075;29;20054;-77
2024/01/22 09:58:33;;;;;;;3.47;1.25;;;;;;;;;;4930179;29;20028;-77
2024/01/22 10:01:00;;;;;;;2.60;1.17;;;;;;;;;;4945453;29;20073;-77
2024/01/22 10:03:26;;;;;;;4.88;1.38;;;;;;;;;;4929219;29;20053;-78
2024/01/22 10:05:53;;;;;;;4.63;1.95;;;;;;;;;;4931734;29;20102;-77
2024/01/22 10:08:18;;;;;;;3.70;1.20;;;;;;;;;;4935678;29;20050;-78
2024/01/22 10:10:45;;;;;;;3.10;1.40;;;;;;;;;;4948591;29;20035;-77
2024/01/22 10:13:12;;;;;;;3.72;1.60;;;;;;;;;;4963668;29;20513;-77
2024/01/22 10:15:38;;;;;;;5.20;1.95;;;;;;;;;;4945762;29;20043;-76
2024/01/22 10:18:14;;;;;;;6.13;2.63;;;;;;;;;;4962078;29;20131;-77
2024/01/22 10:20:40;;;;;;;6.38;3.13;;;;;;;;;;4945392;29;20462;-77
2024/01/22 10:23:05;;;;;;;3.28;1.35;;;;;;;;;;4928573;29;20031;-77
2024/01/22 10:25:31;;;;;;;2.92;1.30;;;;;;;;;;4960142;29;20062;-77
2024/01/22 10:28:06;;;;;;;6.95;1.70;;;;;;;;;;4930042;29;20035;-76
2024/01/22 10:30:32;;;;;;;3.60;1.23;;;;;;;;;;4947877;29;20027;-77
2024/01/22 10:33:14;;;;;;;3.67;1.40;;;;;;;;;;4964859;29;20050;-78
2024/01/22 10:35:40;;;;;;;2.42;1.10;;;;;;;;;;4950484;29;20035;-77
2024/01/22 10:38:09;;;;;;;4.93;1.55;;;;;;;;;;4936802;29;20059;-78
2024/01/22 10:40:35;;;;;;;6.43;2.90;;;;;;;;;;4969091;29;20023;-77
2024/01/22 10:43:19;;;;;;;5.07;2.10;;;;;;;;;;4935101;29;20086;-77
2024/01/22 10:45:46;;;;;;;2.95;1.17;;;;;;;;;;4937787;29;20139;-77
2024/01/22 10:48:12;;;;;;;4.22;1.77;;;;;;;;;;4954178;29;20058;-78
2024/01/22 10:50:40;;;;;;;3.90;1.40;;;;;;;;;;4954398;29;20046;-78
2024/01/22 10:53:06;;;;;;;4.47;1.87;;;;;;;;;;4954778;29;20039;-78
2024/01/22 10:55:32;;;;;;;4.85;1.42;;;;;;;;;;4923248;29;20039;-77
2024/01/22 10:57:58;;;;;;;4.88;1.83;;;;;;;;;;4959094;29;20035;-77
2024/01/22 11:00:24;;;;;;;3.40;1.50;;;;;;;;;;4943741;29;20042;-78
2024/01/22 11:02:56;;;;;;;9.32;1.85;;;;;;;;;;4929253;29;20125;-77
2024/01/22 11:05:22;;;;;;;3.15;1.05;;;;;;;;;;4961539;29;20023;-77
2024/01/22 11:07:49;;;;;;;4.63;1.25;;;;;;;;;;4961803;29;20047;-77
2024/01/22 11:10:15;;;;;;;2.88;1.00;;;;;;;;;;4961369;29;20031;-77
2024/01/22 11:12:46;;;;;;;2.92;1.00;;;;;;;;;;4962061;29;20045;-77
2024/01/22 11:15:12;;;;;;;2.67;0.93;;;;;;;;;;4962089;29;20039;-77
2024/01/22 11:17:38;;;;;;;4.63;1.10;;;;;;;;;;4917789;29;20039;-77
2024/01/22 11:20:13;;;;;;;4.43;1.45;;;;;;;;;;4945358;29;20475;-78
2024/01/22 11:22:39;;;;;;;3.90;1.52;;;;;;;;;;4929226;29;20109;-77
2024/01/22 11:25:09;;;;;;;3.10;1.58;;;;;;;;;;4959977;29;20035;-77
2024/01/22 11:27:39;;;;;;;2.85;1.17;;;;;;;;;;4948971;29;20066;-76
2024/01/22 11:30:23;;;;;;;2.30;1.20;;;;;;;;;;4937441;29;20103;-77
2024/01/22 11:32:49;;;;;;;2.75;1.30;;;;;;;;;;4935693;29;20047;-77
2024/01/22 11:35:37;;;;;;;3.95;1.30;;;;;;;;;;4916951;29;20061;-77
2024/01/22 11:38:03;;;;;;;;;;;;;;;;;;4935482;29;20035;-78
2024/01/22 11:40:49;;;;;;;2.53;0.95;;;;;;;;;;4934641;29;19914;-78
2024/01/22 11:43:18;;;;;;;3.72;1.05;;;;;;;;;;4923947;29;20039;-77
2024/01/22 11:45:44;;;;;;;1.67;0.77;;;;;;;;;;4952002;29;20126;-78
2024/01/22 11:48:19;;;;;;;2.53;0.90;;;;;;;;;;4949465;29;20034;-77
2024/01/22 11:50:58;;;;;;;3.28;0.80;;;;;;;;;;4968601;29;20024;-78
2024/01/22 11:53:25;;;;;;;4.18;1.00;;;;;;;;;;4952845;29;20086;-79
2024/01/22 11:56:21;;;;;;;3.42;1.27;;;;;;;;;;4920154;29;20122;-79
2024/01/22 11:58:51;;;;;;;4.72;1.65;;;;;;;;;;4851321;29;20042;-77
2024/01/22 12:01:16;;;;;;;;;;;;;;;;;;4850920;29;20030;-79
2024/01/22 12:03:43;;;;;;;2.25;0.98;;;;;;;;;;4848171;29;19919;-78
2024/01/22 12:06:09;;;;;;;1.90;0.80;;;;;;;;;;4832254;29;20161;-77
2024/01/22 12:08:35;;;;;;;2.55;0.82;;;;;;;;;;4848179;29;20105;-78
2024/01/22 12:11:13;;;;;;;4.88;0.88;;;;;;;;;;4847602;29;20049;-78
2024/01/22 12:13:42;;;;;;;1.95;0.90;;;;;;;;;;4865017;29;20141;-78
2024/01/22 12:16:17;;;;;;;2.97;0.95;;;;;;;;;;4863716;29;20046;-78
2024/01/22 12:18:46;;;;;;;3.15;0.98;;;;;;;;;;4864751;29;20041;-77
2024/01/22 12:21:12;;;;;;;2.42;0.85;;;;;;;;;;4848658;29;20080;-77
2024/01/22 12:23:38;;;;;;;2.45;1.10;;;;;;;;;;4865934;29;20095;-77
2024/01/22 12:26:19;;;;;;;2.00;0.90;;;;;;;;;;4850187;29;20088;-77
2024/01/22 12:28:50;;;;;;;2.53;1.00;;;;;;;;;;4851198;29;20056;-77
2024/01/22 12:31:19;;;;;;;9.55;1.20;;;;;;;;;;4867747;29;20049;-77
2024/01/22 12:33:45;;;;;;;5.65;1.15;;;;;;;;;;4851179;29;20129;-77
2024/01/22 12:36:11;;;;;;;5.10;1.23;;;;;;;;;;4923712;29;20063;-78
2024/01/22 12:38:46;;;;;;;2.40;1.15;;;;;;;;;;4946284;29;20035;-78
2024/01/22 12:41:14;;;;;;;3.58;0.88;;;;;;;;;;4931793;29;20039;-77
2024/01/22 12:43:40;;;;;;;4.47;1.10;;;;;;;;;;4963895;29;20035;-78
2024/01/22 12:46:06;;;;;;;4.00;1.40;;;;;;;;;;4944860;29;20050;-77
2024/01/22 12:48:32;;;;;;;6.07;1.83;;;;;;;;;;4912161;29;20039;-78
2024/01/22 12:50:58;;;;;;;7.82;1.45;;;;;;;;;;4927857;29;20053;-78
2024/01/22 12:53:23;;;;;;;3.47;1.40;;;;;;;;;;4928846;29;20070;-79
2024/01/22 12:55:49;;;;;;;4.45;1.40;;;;;;;;;;4974822;28;20031;-78
2024/01/22 12:58:15;;;;;;;5.65;1.40;;;;;;;;;;4964641;28;20034;-78
2024/01/22 13:00:42;;;;;;;4.65;1.85;;;;;;;;;;4946197;28;20042;-79
2024/01/22 13:03:08;;;;;;;3.05;1.02;;;;;;;;;;4977287;28;20039;-78
2024/01/22 13:05:34;;;;;;;3.05;1.20;;;;;;;;;;4944795;28;20102;-77
2024/01/22 13:07:59;;;;;;;2.55;1.10;;;;;;;;;;4946424;28;20046;-78
2024/01/22 13:10:25;;;;;;;3.72;1.00;;;;;;;;;;4978835;28;20035;-78
2024/01/22 13:12:51;;;;;;;4.68;0.98;;;;;;;;;;4945317;28;20037;-78
2024/01/22 13:15:17;;;;;;;4.28;1.20;;;;;;;;;;4961154;28;20391;-79
2024/01/22 13:17:43;;;;;;;3.05;1.10;;;;;;;;;;4945646;28;20038;-78
2024/01/22 13:20:09;;;;;;;4.45;1.23;;;;;;;;;;4946036;28;20406;-78
2024/01/22 13:22:35;;;;;;;2.88;1.20;;;;;;;;;;4977178;28;20023;-79
2024/01/22 13:25:01;;;;;;;2.90;1.13;;;;;;;;;;4947703;28;20027;-79
2024/01/22 13:27:27;;;;;;;2.95;1.20;;;;;;;;;;4930260;28;20066;-78
2024/01/22 13:29:56;;;;;;;2.35;0.98;;;;;;;;;;4946945;28;20046;-80
2024/01/22 13:32:22;;;;;;;3.47;1.20;;;;;;;;;;4950410;28;20042;-79
2024/01/22 13:34:47;;;;;;;3.63;1.40;;;;;;;;;;4965068;28;20110;-79
2024/01/22 13:37:13;;;;;;;3.28;1.60;;;;;;;;;;4933990;28;20162;-79
2024/01/22 13:39:39;;;;;;;4.82;1.48;;;;;;;;;;4966263;28;20467;-78
2024/01/22 13:42:05;;;;;;;2.00;1.05;;;;;;;;;;4980778;28;20023;-79
2024/01/22 13:44:30;;;;;;;2.65;1.13;;;;;;;;;;4963850;28;20094;-78
2024/01/22 13:46:59;;;;;;;3.80;1.70;;;;;;;;;;4932147;28;20035;-78
2024/01/22 13:49:25;;;;;;;5.50;1.38;;;;;;;;;;4949558;28;20039;-79
2024/01/22 13:51:50;;;;;;;4.13;1.60;;;;;;;;;;4950513;28;20042;-78
2024/01/22 13:54:16;;;;;;;5.85;1.75;;;;;;;;;;4950481;28;20086;-80
2024/01/22 13:56:42;;;;;;;3.85;1.67;;;;;;;;;;4950070;28;20035;-78
2024/01/22 13:59:08;;;;;;;4.40;1.60;;;;;;;;;;4968318;28;20512;-78
2024/01/22 14:01:33;;;;;;;6.05;1.65;;;;;;;;;;4952740;28;20125;-79
2024/01/22 14:03:59;;;;;;;2.88;1.48;;;;;;;;;;4968313;28;20102;-79
2024/01/22 14:06:25;;;;;;;3.85;1.17;;;;;;;;;;4951143;28;20027;-77
2024/01/22 14:08:51;;;;;;;4.53;1.52;;;;;;;;;;4949504;28;20049;-79
2024/01/22 14:11:17;;;;;;;3.85;1.70;;;;;;;;;;4966971;28;20034;-79
2024/01/22 14:13:45;;;;;;;4.75;1.10;;;;;;;;;;4981345;28;20039;-79
2024/01/22 14:16:11;;;;;;;2.85;1.15;;;;;;;;;;4982086;28;20042;-78
2024/01/22 14:18:37;;;;;;;3.75;1.27;;;;;;;;;;4967812;28;20023;-79
2024/01/22 14:21:05;;;;;;;6.10;1.50;;;;;;;;;;4951457;28;20091;-78
2024/01/22 14:23:31;;;;;;;4.68;1.63;;;;;;;;;;4950925;28;20054;-80
2024/01/22 14:25:58;;;;;;;3.35;1.40;;;;;;;;;;4968732;28;20130;-79
2024/01/22 14:28:23;;;;;;;3.05;1.02;;;;;;;;;;4935980;28;20023;-78
2024/01/22 14:30:52;;;;;;;3.92;1.35;;;;;;;;;;4954300;28;20027;-81
2024/01/22 14:33:18;;;;;;;1.98;0.80;;;;;;;;;;4952338;28;20031;-79
2024/01/22 14:35:45;;;;;;;2.95;1.10;;;;;;;;;;4949422;28;20425;-78
2024/01/22 14:38:10;;;;;;;2.97;1.00;;;;;;;;;;4964894;28;20113;-79
2024/01/22 14:40:37;;;;;;;1.35;0.73;;;;;;;;;;4948938;28;20486;-78
2024/01/22 14:43:03;;;;;;;2.92;1.23;;;;;;;;;;4948557;28;20391;-78
2024/01/22 14:45:31;;;;;;;3.50;1.30;;;;;;;;;;4964528;28;20038;-78
2024/01/22 14:47:57;;;;;;;1.45;0.68;;;;;;;;;;4964357;28;20038;-78
2024/01/22 14:50:23;;;;;;;2.15;0.82;;;;;;;;;;4932162;28;20470;-78
2024/01/22 14:52:49;;;;;;;1.23;0.50;;;;;;;;;;4944738;28;20098;-77
2024/01/22 14:55:15;;;;;;;5.68;1.73;;;;;;;;;;4963874;28;20038;-78
2024/01/22 14:57:41;;;;;;;1.90;0.90;;;;;;;;;;4981669;28;20034;-77
2024/01/22 15:00:07;;;;;;;1.25;0.50;;;;;;;;;;4948234;28;20031;-76
2024/01/22 15:02:33;;;;;;;3.13;0.82;;;;;;;;;;4962416;28;20019;-78
2024/01/22 15:04:59;;;;;;;1.42;0.70;;;;;;;;;;4944171;29;20034;-78
2024/01/22 15:07:26;;;;;;;4.45;0.60;;;;;;;;;;4927868;28;20098;-79
2024/01/22 15:09:52;;;;;;;1.35;0.50;;;;;;;;;;4939110;28;20026;-78
2024/01/22 15:12:19;;;;;;;1.63;0.40;;;;;;;;;;4934877;28;20042;-77
2024/01/22 15:14:45;;;;;;;1.65;0.90;;;;;;;;;;4963461;28;20038;-78
2024/01/22 15:17:11;;;;;;;1.55;0.70;;;;;;;;;;4948901;28;20058;-77
2024/01/22 15:19:40;;;;;;;2.10;0.60;;;;;;;;;;4934436;28;20035;-78